sensor_id;sensor_type;location;lat;lon;timestamp;P1;durP1;ratioP1;P2;durP2;ratioP2
33880;SDS011;20172;47.530;10.256;2022-08-01T00:01:46;5.83;;;2.67;;
33880;SDS011;20172;47.530;10.256;2022-08-01T00:04:12;4.32;;;2.35;;
33880;SDS011;20172;47.530;10.256;2022-08-01T00:06:37;3.97;;;2.07;;
33880;SDS011;20172;47.530;10.256;2022-08-01T00:09:03;5.40;;;2.63;;
33880;SDS011;20172;47.530;10.256;2022-08-01T00:11:29;3.80;;;2.10;;
33880;SDS011;20172;47.530;10.256;2022-08-01T00:13:54;4.00;;;2.15;;
33880;SDS011;20172;47.530;10.256;2022-08-01T00:16:20;4.55;;;2.28;;
33880;SDS011;20172;47.530;10.256;2022-08-01T00:18:47;3.97;;;2.30;;
33880;SDS011;20172;47.530;10.256;2022-08-01T00:21:14;4.95;;;2.17;;
33880;SDS011;20172;47.530;10.256;2022-08-01T00:23:41;8.35;;;2.53;;
33880;SDS011;20172;47.530;10.256;2022-08-01T00:26:06;5.78;;;2.05;;
33880;SDS011;20172;47.530;10.256;2022-08-01T00:28:32;3.90;;;2.20;;
33880;SDS011;20172;47.530;10.256;2022-08-01T00:30:58;4.03;;;2.25;;
33880;SDS011;20172;47.530;10.256;2022-08-01T00:33:24;5.50;;;2.75;;
33880;SDS011;20172;47.530;10.256;2022-08-01T00:35:49;5.35;;;2.63;;
33880;SDS011;20172;47.530;10.256;2022-08-01T00:38:15;5.20;;;2.43;;
33880;SDS011;20172;47.530;10.256;2022-08-01T00:40:40;5.72;;;2.20;;
33880;SDS011;20172;47.530;10.256;2022-08-01T00:43:06;5.33;;;2.20;;
33880;SDS011;20172;47.530;10.256;2022-08-01T00:45:32;4.93;;;2.70;;
33880;SDS011;20172;47.530;10.256;2022-08-01T00:47:57;5.33;;;2.50;;
33880;SDS011;20172;47.530;10.256;2022-08-01T00:50:23;4.93;;;2.63;;
33880;SDS011;20172;47.530;10.256;2022-08-01T00:52:49;5.65;;;2.47;;
33880;SDS011;20172;47.530;10.256;2022-08-01T00:55:16;5.33;;;2.17;;
33880;SDS011;20172;47.530;10.256;2022-08-01T00:57:43;4.22;;;2.28;;
33880;SDS011;20172;47.530;10.256;2022-08-01T01:00:09;5.55;;;2.92;;
33880;SDS011;20172;47.530;10.256;2022-08-01T01:02:35;4.30;;;2.55;;
33880;SDS011;20172;47.530;10.256;2022-08-01T01:05:01;4.20;;;2.50;;
33880;SDS011;20172;47.530;10.256;2022-08-01T01:10:21;4.35;;;2.20;;
33880;SDS011;20172;47.530;10.256;2022-08-01T01:13:10;4.07;;;2.60;;
33880;SDS011;20172;47.530;10.256;2022-08-01T01:15:43;4.63;;;2.42;;
33880;SDS011;20172;47.530;10.256;2022-08-01T01:18:17;4.82;;;2.50;;
33880;SDS011;20172;47.530;10.256;2022-08-01T01:20:52;7.45;;;2.67;;
33880;SDS011;20172;47.530;10.256;2022-08-01T01:26:26;7.55;;;2.72;;
33880;SDS011;20172;47.530;10.256;2022-08-01T01:31:43;3.88;;;2.60;;
33880;SDS011;20172;47.530;10.256;2022-08-01T01:34:13;4.63;;;2.80;;
33880;SDS011;20172;47.530;10.256;2022-08-01T01:36:42;4.20;;;2.35;;
33880;SDS011;20172;47.530;10.256;2022-08-01T01:39:08;4.63;;;2.70;;
33880;SDS011;20172;47.530;10.256;2022-08-01T01:41:36;5.10;;;2.70;;
33880;SDS011;20172;47.530;10.256;2022-08-01T01:44:04;4.00;;;2.78;;
33880;SDS011;20172;47.530;10.256;2022-08-01T01:46:30;4.43;;;2.60;;
33880;SDS011;20172;47.530;10.256;2022-08-01T01:48:57;12.00;;;3.17;;
33880;SDS011;20172;47.530;10.256;2022-08-01T01:51:25;4.07;;;2.40;;
33880;SDS011;20172;47.530;10.256;2022-08-01T01:53:53;7.35;;;2.80;;
33880;SDS011;20172;47.530;10.256;2022-08-01T01:56:20;4.53;;;2.80;;
33880;SDS011;20172;47.530;10.256;2022-08-01T01:58:48;4.93;;;2.40;;
33880;SDS011;20172;47.530;10.256;2022-08-01T02:01:18;4.95;;;2.67;;
33880;SDS011;20172;47.530;10.256;2022-08-01T02:03:46;4.80;;;2.80;;
33880;SDS011;20172;47.530;10.256;2022-08-01T02:06:14;5.68;;;2.75;;
33880;SDS011;20172;47.530;10.256;2022-08-01T02:08:41;4.53;;;2.50;;
33880;SDS011;20172;47.530;10.256;2022-08-01T02:11:07;5.93;;;2.63;;
33880;SDS011;20172;47.530;10.256;2022-08-01T02:13:48;5.53;;;2.63;;
33880;SDS011;20172;47.530;10.256;2022-08-01T02:16:23;3.97;;;2.47;;
33880;SDS011;20172;47.530;10.256;2022-08-01T02:18:53;4.07;;;2.45;;
33880;SDS011;20172;47.530;10.256;2022-08-01T02:21:29;7.47;;;2.75;;
33880;SDS011;20172;47.530;10.256;2022-08-01T02:24:03;6.60;;;2.55;;
33880;SDS011;20172;47.530;10.256;2022-08-01T02:26:40;8.55;;;3.10;;
33880;SDS011;20172;47.530;10.256;2022-08-01T02:29:13;5.38;;;2.78;;
33880;SDS011;20172;47.530;10.256;2022-08-01T02:31:43;6.50;;;3.00;;
33880;SDS011;20172;47.530;10.256;2022-08-01T02:34:13;4.95;;;2.83;;
33880;SDS011;20172;47.530;10.256;2022-08-01T02:36:42;6.78;;;3.08;;
33880;SDS011;20172;47.530;10.256;2022-08-01T02:39:11;6.85;;;2.88;;
33880;SDS011;20172;47.530;10.256;2022-08-01T02:41:41;6.00;;;3.33;;
33880;SDS011;20172;47.530;10.256;2022-08-01T02:44:09;3.90;;;2.70;;
33880;SDS011;20172;47.530;10.256;2022-08-01T02:46:41;4.72;;;3.15;;
33880;SDS011;20172;47.530;10.256;2022-08-01T02:49:16;4.60;;;2.63;;
33880;SDS011;20172;47.530;10.256;2022-08-01T02:51:44;4.37;;;2.73;;
33880;SDS011;20172;47.530;10.256;2022-08-01T02:54:11;5.13;;;2.70;;
33880;SDS011;20172;47.530;10.256;2022-08-01T02:56:40;4.93;;;2.75;;
33880;SDS011;20172;47.530;10.256;2022-08-01T02:59:16;6.15;;;3.05;;
33880;SDS011;20172;47.530;10.256;2022-08-01T03:01:45;4.78;;;2.85;;
33880;SDS011;20172;47.530;10.256;2022-08-01T03:04:12;5.40;;;2.80;;
33880;SDS011;20172;47.530;10.256;2022-08-01T03:06:39;4.22;;;2.85;;
33880;SDS011;20172;47.530;10.256;2022-08-01T03:09:06;4.70;;;2.50;;
33880;SDS011;20172;47.530;10.256;2022-08-01T03:11:33;6.25;;;3.00;;
33880;SDS011;20172;47.530;10.256;2022-08-01T03:14:02;12.20;;;3.38;;
33880;SDS011;20172;47.530;10.256;2022-08-01T03:16:30;5.00;;;2.83;;
33880;SDS011;20172;47.530;10.256;2022-08-01T03:18:58;5.30;;;2.97;;
33880;SDS011;20172;47.530;10.256;2022-08-01T03:21:26;4.90;;;2.80;;
33880;SDS011;20172;47.530;10.256;2022-08-01T03:23:54;4.93;;;2.67;;
33880;SDS011;20172;47.530;10.256;2022-08-01T03:26:26;4.57;;;2.65;;
33880;SDS011;20172;47.530;10.256;2022-08-01T03:28:58;5.25;;;2.80;;
33880;SDS011;20172;47.530;10.256;2022-08-01T03:31:27;5.22;;;3.08;;
33880;SDS011;20172;47.530;10.256;2022-08-01T03:33:54;5.68;;;2.53;;
33880;SDS011;20172;47.530;10.256;2022-08-01T03:36:23;5.18;;;2.90;;
33880;SDS011;20172;47.530;10.256;2022-08-01T03:38:52;6.70;;;3.20;;
33880;SDS011;20172;47.530;10.256;2022-08-01T03:41:21;5.40;;;3.25;;
33880;SDS011;20172;47.530;10.256;2022-08-01T03:43:49;6.05;;;3.20;;
33880;SDS011;20172;47.530;10.256;2022-08-01T03:46:29;5.75;;;3.13;;
33880;SDS011;20172;47.530;10.256;2022-08-01T03:48:58;6.75;;;2.90;;
33880;SDS011;20172;47.530;10.256;2022-08-01T03:51:28;4.68;;;3.35;;
33880;SDS011;20172;47.530;10.256;2022-08-01T03:53:55;7.50;;;3.85;;
33880;SDS011;20172;47.530;10.256;2022-08-01T03:56:24;4.20;;;2.78;;
33880;SDS011;20172;47.530;10.256;2022-08-01T03:58:51;6.00;;;3.28;;
33880;SDS011;20172;47.530;10.256;2022-08-01T04:01:18;6.65;;;3.08;;
33880;SDS011;20172;47.530;10.256;2022-08-01T04:03:44;4.03;;;2.70;;
33880;SDS011;20172;47.530;10.256;2022-08-01T04:06:10;6.47;;;3.28;;
33880;SDS011;20172;47.530;10.256;2022-08-01T04:08:38;5.35;;;2.90;;
33880;SDS011;20172;47.530;10.256;2022-08-01T04:11:05;4.97;;;3.10;;
33880;SDS011;20172;47.530;10.256;2022-08-01T04:13:32;4.95;;;3.17;;
33880;SDS011;20172;47.530;10.256;2022-08-01T04:15:58;5.72;;;3.15;;
33880;SDS011;20172;47.530;10.256;2022-08-01T04:18:24;4.72;;;3.13;;
33880;SDS011;20172;47.530;10.256;2022-08-01T04:20:49;6.60;;;3.47;;
33880;SDS011;20172;47.530;10.256;2022-08-01T04:23:16;5.35;;;2.83;;
33880;SDS011;20172;47.530;10.256;2022-08-01T04:25:45;7.88;;;2.83;;
33880;SDS011;20172;47.530;10.256;2022-08-01T04:28:13;6.40;;;2.80;;
33880;SDS011;20172;47.530;10.256;2022-08-01T04:30:41;5.10;;;2.95;;
33880;SDS011;20172;47.530;10.256;2022-08-01T04:33:09;4.85;;;2.88;;
33880;SDS011;20172;47.530;10.256;2022-08-01T04:35:38;4.43;;;2.70;;
33880;SDS011;20172;47.530;10.256;2022-08-01T04:38:06;7.35;;;2.90;;
33880;SDS011;20172;47.530;10.256;2022-08-01T04:40:34;5.60;;;3.22;;
33880;SDS011;20172;47.530;10.256;2022-08-01T04:43:01;6.53;;;3.03;;
33880;SDS011;20172;47.530;10.256;2022-08-01T04:45:27;6.03;;;3.00;;
33880;SDS011;20172;47.530;10.256;2022-08-01T04:47:53;6.22;;;3.28;;
33880;SDS011;20172;47.530;10.256;2022-08-01T04:50:19;4.70;;;2.78;;
33880;SDS011;20172;47.530;10.256;2022-08-01T04:52:47;7.87;;;3.77;;
33880;SDS011;20172;47.530;10.256;2022-08-01T04:55:12;4.43;;;3.13;;
33880;SDS011;20172;47.530;10.256;2022-08-01T04:57:39;4.77;;;3.10;;
33880;SDS011;20172;47.530;10.256;2022-08-01T05:00:07;5.47;;;3.30;;
33880;SDS011;20172;47.530;10.256;2022-08-01T05:02:34;4.90;;;3.28;;
33880;SDS011;20172;47.530;10.256;2022-08-01T05:04:59;5.78;;;3.40;;
33880;SDS011;20172;47.530;10.256;2022-08-01T05:07:25;5.13;;;3.20;;
33880;SDS011;20172;47.530;10.256;2022-08-01T05:09:51;7.80;;;3.55;;
33880;SDS011;20172;47.530;10.256;2022-08-01T05:12:16;5.53;;;3.35;;
33880;SDS011;20172;47.530;10.256;2022-08-01T05:14:42;7.50;;;2.97;;
33880;SDS011;20172;47.530;10.256;2022-08-01T05:17:08;6.93;;;2.97;;
33880;SDS011;20172;47.530;10.256;2022-08-01T05:19:36;4.80;;;3.17;;
33880;SDS011;20172;47.530;10.256;2022-08-01T05:22:03;6.05;;;3.15;;
33880;SDS011;20172;47.530;10.256;2022-08-01T05:24:37;10.32;;;3.28;;
33880;SDS011;20172;47.530;10.256;2022-08-01T05:27:04;4.97;;;3.10;;
33880;SDS011;20172;47.530;10.256;2022-08-01T05:29:31;5.88;;;3.40;;
33880;SDS011;20172;47.530;10.256;2022-08-01T05:31:57;7.43;;;3.40;;
33880;SDS011;20172;47.530;10.256;2022-08-01T05:34:24;4.40;;;3.20;;
33880;SDS011;20172;47.530;10.256;2022-08-01T05:36:50;4.60;;;3.20;;
33880;SDS011;20172;47.530;10.256;2022-08-01T05:39:16;5.68;;;3.22;;
33880;SDS011;20172;47.530;10.256;2022-08-01T05:41:41;8.40;;;3.80;;
33880;SDS011;20172;47.530;10.256;2022-08-01T05:44:07;4.73;;;3.17;;
33880;SDS011;20172;47.530;10.256;2022-08-01T05:46:34;5.53;;;3.47;;
33880;SDS011;20172;47.530;10.256;2022-08-01T05:49:00;4.60;;;3.10;;
33880;SDS011;20172;47.530;10.256;2022-08-01T05:51:27;6.77;;;3.20;;
33880;SDS011;20172;47.530;10.256;2022-08-01T05:53:52;6.57;;;3.27;;
33880;SDS011;20172;47.530;10.256;2022-08-01T05:56:19;5.72;;;3.47;;
33880;SDS011;20172;47.530;10.256;2022-08-01T05:58:46;6.57;;;3.10;;
33880;SDS011;20172;47.530;10.256;2022-08-01T06:01:12;8.05;;;3.45;;
33880;SDS011;20172;47.530;10.256;2022-08-01T06:03:37;4.88;;;3.33;;
33880;SDS011;20172;47.530;10.256;2022-08-01T06:06:03;5.33;;;2.83;;
33880;SDS011;20172;47.530;10.256;2022-08-01T06:08:29;6.77;;;3.80;;
33880;SDS011;20172;47.530;10.256;2022-08-01T06:10:55;6.23;;;3.40;;
33880;SDS011;20172;47.530;10.256;2022-08-01T06:13:21;6.43;;;3.08;;
33880;SDS011;20172;47.530;10.256;2022-08-01T06:15:47;5.68;;;2.70;;
33880;SDS011;20172;47.530;10.256;2022-08-01T06:18:13;4.85;;;2.85;;
33880;SDS011;20172;47.530;10.256;2022-08-01T06:20:39;5.43;;;3.25;;
33880;SDS011;20172;47.530;10.256;2022-08-01T06:23:05;5.10;;;3.13;;
33880;SDS011;20172;47.530;10.256;2022-08-01T06:25:31;6.50;;;3.35;;
33880;SDS011;20172;47.530;10.256;2022-08-01T06:27:58;10.07;;;3.90;;
33880;SDS011;20172;47.530;10.256;2022-08-01T06:30:24;5.83;;;3.23;;
33880;SDS011;20172;47.530;10.256;2022-08-01T06:32:50;6.03;;;3.30;;
33880;SDS011;20172;47.530;10.256;2022-08-01T06:35:17;8.10;;;3.50;;
33880;SDS011;20172;47.530;10.256;2022-08-01T06:37:43;5.57;;;3.20;;
33880;SDS011;20172;47.530;10.256;2022-08-01T06:40:12;7.97;;;3.20;;
33880;SDS011;20172;47.530;10.256;2022-08-01T06:42:38;8.18;;;3.72;;
33880;SDS011;20172;47.530;10.256;2022-08-01T06:47:34;7.70;;;3.47;;
33880;SDS011;20172;47.530;10.256;2022-08-01T06:50:01;6.28;;;3.25;;
33880;SDS011;20172;47.530;10.256;2022-08-01T06:52:27;5.80;;;3.30;;
33880;SDS011;20172;47.530;10.256;2022-08-01T06:54:52;4.57;;;3.05;;
33880;SDS011;20172;47.530;10.256;2022-08-01T06:57:18;6.90;;;3.27;;
33880;SDS011;20172;47.530;10.256;2022-08-01T06:59:44;4.82;;;2.95;;
33880;SDS011;20172;47.530;10.256;2022-08-01T07:02:09;5.22;;;3.05;;
33880;SDS011;20172;47.530;10.256;2022-08-01T07:04:35;5.63;;;3.07;;
33880;SDS011;20172;47.530;10.256;2022-08-01T07:07:01;5.35;;;3.22;;
33880;SDS011;20172;47.530;10.256;2022-08-01T07:09:27;7.65;;;3.13;;
33880;SDS011;20172;47.530;10.256;2022-08-01T07:11:53;9.68;;;3.35;;
33880;SDS011;20172;47.530;10.256;2022-08-01T07:14:19;6.40;;;3.10;;
33880;SDS011;20172;47.530;10.256;2022-08-01T07:16:46;6.78;;;2.95;;
33880;SDS011;20172;47.530;10.256;2022-08-01T07:19:11;6.30;;;3.10;;
33880;SDS011;20172;47.530;10.256;2022-08-01T07:21:37;5.67;;;3.17;;
33880;SDS011;20172;47.530;10.256;2022-08-01T07:24:03;4.40;;;2.70;;
33880;SDS011;20172;47.530;10.256;2022-08-01T07:26:30;6.37;;;2.93;;
33880;SDS011;20172;47.530;10.256;2022-08-01T07:28:55;6.18;;;2.90;;
33880;SDS011;20172;47.530;10.256;2022-08-01T07:31:21;5.03;;;2.95;;
33880;SDS011;20172;47.530;10.256;2022-08-01T07:33:48;6.25;;;2.63;;
33880;SDS011;20172;47.530;10.256;2022-08-01T07:36:14;7.32;;;3.17;;
33880;SDS011;20172;47.530;10.256;2022-08-01T07:38:43;5.30;;;3.15;;
33880;SDS011;20172;47.530;10.256;2022-08-01T07:41:09;5.88;;;3.20;;
33880;SDS011;20172;47.530;10.256;2022-08-01T07:43:35;4.65;;;2.85;;
33880;SDS011;20172;47.530;10.256;2022-08-01T07:46:02;10.15;;;3.10;;
33880;SDS011;20172;47.530;10.256;2022-08-01T07:48:28;7.05;;;3.00;;
33880;SDS011;20172;47.530;10.256;2022-08-01T07:50:54;5.10;;;2.88;;
33880;SDS011;20172;47.530;10.256;2022-08-01T07:53:20;4.90;;;2.97;;
33880;SDS011;20172;47.530;10.256;2022-08-01T07:55:46;6.47;;;3.20;;
33880;SDS011;20172;47.530;10.256;2022-08-01T07:58:12;6.90;;;3.45;;
33880;SDS011;20172;47.530;10.256;2022-08-01T08:00:38;6.05;;;2.55;;
33880;SDS011;20172;47.530;10.256;2022-08-01T08:03:04;4.43;;;2.67;;
33880;SDS011;20172;47.530;10.256;2022-08-01T08:05:30;4.63;;;2.70;;
33880;SDS011;20172;47.530;10.256;2022-08-01T08:08:00;8.90;;;2.97;;
33880;SDS011;20172;47.530;10.256;2022-08-01T08:10:35;6.80;;;2.50;;
33880;SDS011;20172;47.530;10.256;2022-08-01T08:13:01;5.35;;;2.60;;
33880;SDS011;20172;47.530;10.256;2022-08-01T08:15:27;8.80;;;3.25;;
33880;SDS011;20172;47.530;10.256;2022-08-01T08:17:53;4.47;;;2.35;;
33880;SDS011;20172;47.530;10.256;2022-08-01T08:20:19;8.43;;;2.80;;
33880;SDS011;20172;47.530;10.256;2022-08-01T08:22:49;5.22;;;2.80;;
33880;SDS011;20172;47.530;10.256;2022-08-01T08:25:15;5.05;;;2.42;;
33880;SDS011;20172;47.530;10.256;2022-08-01T08:27:41;5.67;;;2.60;;
33880;SDS011;20172;47.530;10.256;2022-08-01T08:30:07;4.80;;;2.53;;
33880;SDS011;20172;47.530;10.256;2022-08-01T08:32:34;6.05;;;2.47;;
33880;SDS011;20172;47.530;10.256;2022-08-01T08:35:00;5.07;;;2.33;;
33880;SDS011;20172;47.530;10.256;2022-08-01T08:37:26;5.80;;;2.28;;
33880;SDS011;20172;47.530;10.256;2022-08-01T08:39:52;5.65;;;2.53;;
33880;SDS011;20172;47.530;10.256;2022-08-01T08:42:17;5.10;;;2.60;;
33880;SDS011;20172;47.530;10.256;2022-08-01T08:44:43;3.80;;;2.15;;
33880;SDS011;20172;47.530;10.256;2022-08-01T08:47:10;6.43;;;2.57;;
33880;SDS011;20172;47.530;10.256;2022-08-01T08:49:37;5.50;;;2.85;;
33880;SDS011;20172;47.530;10.256;2022-08-01T08:52:03;4.93;;;2.53;;
33880;SDS011;20172;47.530;10.256;2022-08-01T08:54:30;5.13;;;2.70;;
33880;SDS011;20172;47.530;10.256;2022-08-01T08:56:57;4.05;;;2.22;;
33880;SDS011;20172;47.530;10.256;2022-08-01T08:59:25;5.55;;;2.47;;
33880;SDS011;20172;47.530;10.256;2022-08-01T09:01:53;6.07;;;2.50;;
33880;SDS011;20172;47.530;10.256;2022-08-01T09:04:20;4.78;;;2.83;;
33880;SDS011;20172;47.530;10.256;2022-08-01T09:06:49;4.97;;;2.70;;
33880;SDS011;20172;47.530;10.256;2022-08-01T09:09:15;5.05;;;2.30;;
33880;SDS011;20172;47.530;10.256;2022-08-01T09:11:40;7.10;;;2.70;;
33880;SDS011;20172;47.530;10.256;2022-08-01T09:14:08;7.38;;;2.60;;
33880;SDS011;20172;47.530;10.256;2022-08-01T09:16:58;6.78;;;2.63;;
33880;SDS011;20172;47.530;10.256;2022-08-01T09:19:35;3.95;;;2.40;;
33880;SDS011;20172;47.530;10.256;2022-08-01T09:22:04;5.70;;;2.58;;
33880;SDS011;20172;47.530;10.256;2022-08-01T09:24:32;4.70;;;2.60;;
33880;SDS011;20172;47.530;10.256;2022-08-01T09:26:59;5.95;;;2.90;;
33880;SDS011;20172;47.530;10.256;2022-08-01T09:29:27;7.00;;;2.60;;
33880;SDS011;20172;47.530;10.256;2022-08-01T09:31:54;4.53;;;2.50;;
33880;SDS011;20172;47.530;10.256;2022-08-01T09:34:28;5.07;;;2.70;;
33880;SDS011;20172;47.530;10.256;2022-08-01T09:36:58;7.93;;;2.53;;
33880;SDS011;20172;47.530;10.256;2022-08-01T09:39:26;5.28;;;2.65;;
33880;SDS011;20172;47.530;10.256;2022-08-01T09:41:53;4.60;;;2.78;;
33880;SDS011;20172;47.530;10.256;2022-08-01T09:44:25;5.38;;;2.90;;
33880;SDS011;20172;47.530;10.256;2022-08-01T09:47:05;5.10;;;2.55;;
33880;SDS011;20172;47.530;10.256;2022-08-01T09:49:35;5.43;;;2.20;;
33880;SDS011;20172;47.530;10.256;2022-08-01T09:52:11;5.05;;;2.85;;
33880;SDS011;20172;47.530;10.256;2022-08-01T09:54:39;4.72;;;2.42;;
33880;SDS011;20172;47.530;10.256;2022-08-01T09:57:09;6.78;;;2.50;;
33880;SDS011;20172;47.530;10.256;2022-08-01T09:59:44;5.43;;;2.55;;
33880;SDS011;20172;47.530;10.256;2022-08-01T10:02:26;4.43;;;2.55;;
33880;SDS011;20172;47.530;10.256;2022-08-01T10:04:52;4.45;;;2.40;;
33880;SDS011;20172;47.530;10.256;2022-08-01T10:07:19;5.22;;;2.33;;
33880;SDS011;20172;47.530;10.256;2022-08-01T10:09:45;6.10;;;2.50;;
33880;SDS011;20172;47.530;10.256;2022-08-01T10:12:18;8.00;;;2.80;;
33880;SDS011;20172;47.530;10.256;2022-08-01T10:14:46;4.80;;;2.67;;
33880;SDS011;20172;47.530;10.256;2022-08-01T10:17:15;5.97;;;2.67;;
33880;SDS011;20172;47.530;10.256;2022-08-01T10:19:42;5.47;;;2.60;;
33880;SDS011;20172;47.530;10.256;2022-08-01T10:22:09;5.27;;;2.27;;
33880;SDS011;20172;47.530;10.256;2022-08-01T10:24:37;4.15;;;2.28;;
33880;SDS011;20172;47.530;10.256;2022-08-01T10:27:05;9.05;;;2.13;;
33880;SDS011;20172;47.530;10.256;2022-08-01T10:29:35;5.53;;;2.22;;
33880;SDS011;20172;47.530;10.256;2022-08-01T10:32:07;4.63;;;2.40;;
33880;SDS011;20172;47.530;10.256;2022-08-01T10:34:34;5.73;;;2.77;;
33880;SDS011;20172;47.530;10.256;2022-08-01T10:37:02;5.68;;;2.25;;
33880;SDS011;20172;47.530;10.256;2022-08-01T10:39:30;5.13;;;2.33;;
33880;SDS011;20172;47.530;10.256;2022-08-01T10:41:56;5.23;;;2.23;;
33880;SDS011;20172;47.530;10.256;2022-08-01T10:44:23;3.72;;;1.98;;
33880;SDS011;20172;47.530;10.256;2022-08-01T10:46:51;3.97;;;2.00;;
33880;SDS011;20172;47.530;10.256;2022-08-01T10:49:20;3.20;;;1.90;;
33880;SDS011;20172;47.530;10.256;2022-08-01T10:51:51;5.10;;;2.42;;
33880;SDS011;20172;47.530;10.256;2022-08-01T10:54:16;4.05;;;1.83;;
33880;SDS011;20172;47.530;10.256;2022-08-01T10:56:43;3.83;;;1.70;;
33880;SDS011;20172;47.530;10.256;2022-08-01T11:02:03;3.72;;;1.98;;
33880;SDS011;20172;47.530;10.256;2022-08-01T11:07:16;3.00;;;1.45;;
33880;SDS011;20172;47.530;10.256;2022-08-01T11:09:47;3.20;;;1.55;;
33880;SDS011;20172;47.530;10.256;2022-08-01T11:12:37;4.15;;;1.70;;
33880;SDS011;20172;47.530;10.256;2022-08-01T11:26:07;3.85;;;1.70;;
33880;SDS011;20172;47.530;10.256;2022-08-01T11:33:11;3.25;;;1.38;;
33880;SDS011;20172;47.530;10.256;2022-08-01T11:38:39;4.57;;;1.60;;
33880;SDS011;20172;47.530;10.256;2022-08-01T11:41:35;14.57;;;2.33;;
33880;SDS011;20172;47.530;10.256;2022-08-01T11:52:45;4.32;;;1.90;;
33880;SDS011;20172;47.530;10.256;2022-08-01T11:54:54;3.45;;;1.70;;
33880;SDS011;20172;47.530;10.256;2022-08-01T11:57:25;4.28;;;1.42;;
33880;SDS011;20172;47.530;10.256;2022-08-01T11:59:55;3.23;;;1.40;;
33880;SDS011;20172;47.530;10.256;2022-08-01T12:02:26;4.40;;;1.60;;
33880;SDS011;20172;47.530;10.256;2022-08-01T12:04:55;2.67;;;1.60;;
33880;SDS011;20172;47.530;10.256;2022-08-01T12:07:21;4.93;;;1.77;;
33880;SDS011;20172;47.530;10.256;2022-08-01T12:09:48;4.65;;;1.58;;
33880;SDS011;20172;47.530;10.256;2022-08-01T12:12:21;3.10;;;1.43;;
33880;SDS011;20172;47.530;10.256;2022-08-01T12:14:52;4.63;;;1.80;;
33880;SDS011;20172;47.530;10.256;2022-08-01T12:17:55;3.80;;;1.30;;
33880;SDS011;20172;47.530;10.256;2022-08-01T12:20:15;3.08;;;1.52;;
33880;SDS011;20172;47.530;10.256;2022-08-01T12:22:44;3.60;;;1.53;;
33880;SDS011;20172;47.530;10.256;2022-08-01T12:25:12;4.28;;;1.42;;
33880;SDS011;20172;47.530;10.256;2022-08-01T12:27:40;2.57;;;1.30;;
33880;SDS011;20172;47.530;10.256;2022-08-01T12:30:10;3.58;;;1.60;;
33880;SDS011;20172;47.530;10.256;2022-08-01T12:32:42;3.42;;;1.50;;
33880;SDS011;20172;47.530;10.256;2022-08-01T12:35:10;4.07;;;1.45;;
33880;SDS011;20172;47.530;10.256;2022-08-01T12:37:41;2.88;;;1.33;;
33880;SDS011;20172;47.530;10.256;2022-08-01T12:40:12;3.03;;;1.48;;
33880;SDS011;20172;47.530;10.256;2022-08-01T12:42:42;3.65;;;1.35;;
33880;SDS011;20172;47.530;10.256;2022-08-01T12:45:10;3.63;;;1.40;;
33880;SDS011;20172;47.530;10.256;2022-08-01T12:47:37;4.80;;;1.60;;
33880;SDS011;20172;47.530;10.256;2022-08-01T12:50:05;4.00;;;1.90;;
33880;SDS011;20172;47.530;10.256;2022-08-01T12:52:32;3.70;;;1.70;;
33880;SDS011;20172;47.530;10.256;2022-08-01T12:57:30;3.83;;;1.50;;
33880;SDS011;20172;47.530;10.256;2022-08-01T13:00:12;2.78;;;1.38;;
33880;SDS011;20172;47.530;10.256;2022-08-01T13:02:42;6.07;;;1.70;;
33880;SDS011;20172;47.530;10.256;2022-08-01T13:05:09;3.97;;;1.80;;
33880;SDS011;20172;47.530;10.256;2022-08-01T13:10:06;4.23;;;1.60;;
33880;SDS011;20172;47.530;10.256;2022-08-01T13:12:32;3.50;;;1.80;;
33880;SDS011;20172;47.530;10.256;2022-08-01T13:14:59;6.17;;;1.70;;
33880;SDS011;20172;47.530;10.256;2022-08-01T13:17:34;4.70;;;1.67;;
33880;SDS011;20172;47.530;10.256;2022-08-01T13:20:05;3.00;;;1.33;;
33880;SDS011;20172;47.530;10.256;2022-08-01T13:22:34;3.17;;;1.38;;
33880;SDS011;20172;47.530;10.256;2022-08-01T13:25:13;4.00;;;1.30;;
33880;SDS011;20172;47.530;10.256;2022-08-01T13:27:40;2.97;;;1.40;;
33880;SDS011;20172;47.530;10.256;2022-08-01T13:30:10;3.58;;;1.50;;
33880;SDS011;20172;47.530;10.256;2022-08-01T13:32:39;3.20;;;1.60;;
33880;SDS011;20172;47.530;10.256;2022-08-01T13:35:09;3.47;;;1.70;;
33880;SDS011;20172;47.530;10.256;2022-08-01T13:37:38;3.40;;;1.50;;
33880;SDS011;20172;47.530;10.256;2022-08-01T13:40:08;4.22;;;1.42;;
33880;SDS011;20172;47.530;10.256;2022-08-01T13:42:35;2.80;;;1.40;;
33880;SDS011;20172;47.530;10.256;2022-08-01T13:45:01;3.60;;;1.50;;
33880;SDS011;20172;47.530;10.256;2022-08-01T13:47:28;5.57;;;1.75;;
33880;SDS011;20172;47.530;10.256;2022-08-01T13:49:54;5.07;;;1.80;;
33880;SDS011;20172;47.530;10.256;2022-08-01T13:52:19;53.17;;;5.60;;
33880;SDS011;20172;47.530;10.256;2022-08-01T13:54:45;3.50;;;1.67;;
33880;SDS011;20172;47.530;10.256;2022-08-01T13:57:11;4.50;;;1.60;;
33880;SDS011;20172;47.530;10.256;2022-08-01T13:59:36;4.47;;;1.73;;
33880;SDS011;20172;47.530;10.256;2022-08-01T14:02:02;4.60;;;1.70;;
33880;SDS011;20172;47.530;10.256;2022-08-01T14:04:28;3.40;;;1.60;;
33880;SDS011;20172;47.530;10.256;2022-08-01T14:06:53;2.87;;;1.43;;
33880;SDS011;20172;47.530;10.256;2022-08-01T14:09:19;6.53;;;1.85;;
33880;SDS011;20172;47.530;10.256;2022-08-01T14:11:47;3.10;;;1.43;;
33880;SDS011;20172;47.530;10.256;2022-08-01T14:14:13;5.20;;;1.88;;
33880;SDS011;20172;47.530;10.256;2022-08-01T14:16:39;3.53;;;1.55;;
33880;SDS011;20172;47.530;10.256;2022-08-01T14:19:04;3.28;;;1.67;;
33880;SDS011;20172;47.530;10.256;2022-08-01T14:21:30;4.70;;;1.67;;
33880;SDS011;20172;47.530;10.256;2022-08-01T14:23:56;4.60;;;1.83;;
33880;SDS011;20172;47.530;10.256;2022-08-01T14:26:22;3.10;;;1.40;;
33880;SDS011;20172;47.530;10.256;2022-08-01T14:28:47;4.78;;;1.58;;
33880;SDS011;20172;47.530;10.256;2022-08-01T14:31:13;5.65;;;2.20;;
33880;SDS011;20172;47.530;10.256;2022-08-01T14:33:39;3.20;;;1.70;;
33880;SDS011;20172;47.530;10.256;2022-08-01T14:36:04;3.03;;;1.47;;
33880;SDS011;20172;47.530;10.256;2022-08-01T14:38:30;3.92;;;1.70;;
33880;SDS011;20172;47.530;10.256;2022-08-01T14:40:56;3.00;;;1.33;;
33880;SDS011;20172;47.530;10.256;2022-08-01T14:43:21;3.27;;;1.73;;
33880;SDS011;20172;47.530;10.256;2022-08-01T14:45:47;3.57;;;1.77;;
33880;SDS011;20172;47.530;10.256;2022-08-01T14:48:17;3.78;;;2.00;;
33880;SDS011;20172;47.530;10.256;2022-08-01T14:50:43;4.20;;;1.80;;
33880;SDS011;20172;47.530;10.256;2022-08-01T14:53:09;3.55;;;1.88;;
33880;SDS011;20172;47.530;10.256;2022-08-01T14:55:34;3.53;;;1.70;;
33880;SDS011;20172;47.530;10.256;2022-08-01T14:58:00;4.10;;;2.00;;
33880;SDS011;20172;47.530;10.256;2022-08-01T15:00:26;3.37;;;1.63;;
33880;SDS011;20172;47.530;10.256;2022-08-01T15:02:51;3.43;;;1.60;;
33880;SDS011;20172;47.530;10.256;2022-08-01T15:05:17;5.00;;;2.05;;
33880;SDS011;20172;47.530;10.256;2022-08-01T15:07:42;10.32;;;2.08;;
33880;SDS011;20172;47.530;10.256;2022-08-01T15:10:08;3.20;;;1.57;;
33880;SDS011;20172;47.530;10.256;2022-08-01T15:12:34;3.60;;;1.73;;
33880;SDS011;20172;47.530;10.256;2022-08-01T15:15:00;4.45;;;1.63;;
33880;SDS011;20172;47.530;10.256;2022-08-01T15:17:29;3.73;;;1.43;;
33880;SDS011;20172;47.530;10.256;2022-08-01T15:19:58;3.38;;;1.75;;
33880;SDS011;20172;47.530;10.256;2022-08-01T15:22:26;4.13;;;1.80;;
33880;SDS011;20172;47.530;10.256;2022-08-01T15:24:53;4.15;;;1.40;;
33880;SDS011;20172;47.530;10.256;2022-08-01T15:27:20;2.88;;;1.45;;